Time;durP1;ratioP1;P1;durP2;ratioP2;P2;SDS_P1;SDS_P2;PMS_P1;PMS_P2;Temp;Humidity;BMP_temperature;BMP_pressure;BME280_temperature;BME280_humidity;BME280_pressure;Samples;Min_cycle;Max_cycle;Signal;HPM_P1;HPM_P2
2022/09/19 00:00:46;;;;;;;6.60;2.37;;;10.60;99.90;;;;;;5056754;28;20209;-82
2022/09/19 00:03:13;;;;;;;9.67;2.40;;;10.60;99.90;;;;;;5056734;28;20286;-82
2022/09/19 00:05:41;;;;;;;7.00;3.60;;;10.60;99.90;;;;;;5057400;28;20221;-84
2022/09/19 00:08:08;;;;;;;4.57;2.17;;;10.60;99.90;;;;;;5057903;28;20715;-84
2022/09/19 00:10:40;;;;;;;8.07;2.70;;;10.60;99.90;;;;;;5058138;28;20214;-83
2022/09/19 00:13:08;;;;;;;8.23;2.60;;;10.60;99.90;;;;;;5057152;28;20674;-82
2022/09/19 00:15:38;;;;;;;5.97;2.47;;;10.60;99.90;;;;;;5056238;28;20710;-83
2022/09/19 00:18:05;;;;;;;8.30;2.57;;;10.60;99.90;;;;;;5046979;28;20229;-83
2022/09/19 00:20:33;;;;;;;5.43;2.40;;;10.60;99.90;;;;;;5053181;28;20213;-84
2022/09/19 00:25:45;;;;;;;5.57;2.33;;;10.60;99.90;;;;;;5055618;28;20294;-82
2022/09/19 00:28:11;;;;;;;8.63;2.60;;;10.60;99.90;;;;;;5056366;28;20205;-84
2022/09/19 00:30:40;;;;;;;7.63;3.23;;;10.60;99.90;;;;;;5057128;28;20265;-83
2022/09/19 00:33:07;;;;;;;4.27;2.73;;;10.60;99.90;;;;;;5046113;28;20195;-83
2022/09/19 00:35:33;;;;;;;6.60;2.73;;;10.70;99.90;;;;;;5057317;28;20223;-83
2022/09/19 00:38:00;;;;;;;6.10;2.73;;;10.70;99.90;;;;;;5055861;28;20318;-83
2022/09/19 00:40:27;;;;;;;5.10;2.63;;;10.70;99.90;;;;;;5057320;28;20207;-82
2022/09/19 00:42:54;;;;;;;3.93;3.17;;;10.70;99.90;;;;;;5056443;28;20262;-83
2022/09/19 00:45:21;;;;;;;6.43;2.90;;;10.70;99.90;;;;;;5057074;28;20225;-83
2022/09/19 00:47:53;;;;;;;7.57;3.30;;;10.70;99.90;;;;;;5058023;28;20673;-82
2022/09/19 00:50:23;;;;;;;5.97;2.30;;;10.70;99.90;;;;;;5056153;28;20207;-83
2022/09/19 00:52:53;;;;;;;6.53;2.57;;;10.70;99.90;;;;;;5056675;28;20282;-82
2022/09/19 00:55:21;;;;;;;8.70;2.67;;;10.70;99.90;;;;;;5052611;28;20223;-82
2022/09/19 00:57:58;;;;;;;4.73;2.20;;;10.70;99.90;;;;;;5056841;28;20226;-83
2022/09/19 01:00:25;;;;;;;4.67;2.60;;;10.70;99.90;;;;;;5057405;28;20193;-83
2022/09/19 01:02:54;;;;;;;7.40;2.10;;;10.70;99.90;;;;;;5057087;28;20281;-83
2022/09/19 01:05:28;;;;;;;4.40;2.10;;;10.70;99.90;;;;;;5056226;28;20211;-83
2022/09/19 01:08:09;;;;;;;4.90;1.83;;;10.60;99.90;;;;;;5055863;28;20205;-83
2022/09/19 01:10:48;;;;;;;6.27;2.23;;;10.70;99.90;;;;;;5056484;28;20213;-83
2022/09/19 01:13:24;;;;;;;10.37;2.30;;;10.60;99.90;;;;;;5035980;28;20301;-83
2022/09/19 01:15:58;;;;;;;5.20;2.40;;;10.60;99.90;;;;;;5055129;28;20234;-82
2022/09/19 01:18:32;;;;;;;6.60;2.77;;;10.60;99.90;;;;;;5056708;28;20237;-83
2022/09/19 01:24:34;;;;;;;4.90;2.50;;;10.60;99.90;;;;;;5056006;28;20209;-83
2022/09/19 01:27:19;;;;;;;4.57;2.30;;;10.60;99.90;;;;;;5057710;28;20244;-82
2022/09/19 01:29:52;;;;;;;3.60;2.20;;;10.50;99.90;;;;;;5036010;28;20746;-83
2022/09/19 01:32:23;;;;;;;4.53;2.93;;;10.50;99.90;;;;;;5040265;28;20200;-83
2022/09/19 01:34:54;;;;;;;5.33;2.53;;;10.50;99.90;;;;;;5057226;28;20766;-83
2022/09/19 01:37:27;;;;;;;5.37;2.53;;;10.50;99.90;;;;;;5056683;28;20230;-83
2022/09/19 01:39:57;;;;;;;6.27;2.70;;;10.50;99.90;;;;;;5036492;28;20689;-83
2022/09/19 01:42:25;;;;;;;4.03;2.10;;;10.40;99.90;;;;;;5037257;28;20242;-82
2022/09/19 01:44:53;;;;;;;6.87;2.30;;;10.40;99.90;;;;;;5042490;28;20238;-82
2022/09/19 01:47:28;;;;;;;6.63;2.47;;;10.40;99.90;;;;;;5056764;28;20225;-83
2022/09/19 01:50:05;;;;;;;2.90;2.10;;;10.40;99.90;;;;;;5057506;28;20206;-83
2022/09/19 01:52:48;;;;;;;4.30;1.70;;;10.40;99.90;;;;;;5056651;28;20233;-84
2022/09/19 01:55:22;;;;;;;6.30;2.03;;;10.40;99.90;;;;;;5052791;28;20704;-82
2022/09/19 01:57:55;;;;;;;8.40;2.30;;;10.40;99.90;;;;;;5046913;28;20250;-83
2022/09/19 02:00:25;;;;;;;3.67;1.60;;;10.40;99.90;;;;;;5050284;28;20199;-83
2022/09/19 02:03:05;;;;;;;6.07;2.00;;;10.40;99.90;;;;;;5051838;28;20238;-83
2022/09/19 02:05:39;;;;;;;6.60;2.10;;;10.40;99.90;;;;;;5046140;28;20226;-82
2022/09/19 02:08:10;;;;;;;4.37;1.70;;;10.40;99.90;;;;;;5049120;28;20207;-82
2022/09/19 02:10:41;;;;;;;6.07;2.00;;;10.40;99.90;;;;;;5039865;28;20212;-83
2022/09/19 02:13:10;;;;;;;5.03;1.57;;;10.40;99.90;;;;;;5054923;28;20293;-83
2022/09/19 02:15:46;;;;;;;3.57;1.47;;;10.30;99.90;;;;;;5059681;28;20651;-83
2022/09/19 02:18:24;;;;;;;5.33;1.20;;;10.30;99.90;;;;;;5060933;28;20227;-82
2022/09/19 02:20:55;;;;;;;2.27;1.40;;;10.30;99.90;;;;;;5050585;28;20206;-82
2022/09/19 02:23:26;;;;;;;4.33;1.20;;;10.30;99.90;;;;;;5058535;28;20242;-83
2022/09/19 02:25:56;;;;;;;7.33;1.40;;;10.20;99.90;;;;;;5041425;28;20290;-82
2022/09/19 02:28:29;;;;;;;4.63;1.10;;;10.20;99.90;;;;;;5047608;28;20211;-84
2022/09/19 02:30:58;;;;;;;2.97;1.10;;;10.20;99.90;;;;;;5050825;28;20207;-83
2022/09/19 02:33:25;;;;;;;4.70;1.30;;;10.20;99.90;;;;;;5058106;28;20199;-84
2022/09/19 02:36:00;;;;;;;3.33;1.17;;;10.20;99.90;;;;;;5058845;28;20276;-83
2022/09/19 02:38:35;;;;;;;5.07;1.50;;;10.20;99.90;;;;;;5060114;28;20222;-82
2022/09/19 02:41:08;;;;;;;5.13;1.30;;;10.20;99.90;;;;;;5058672;28;20206;-83
2022/09/19 02:43:43;;;;;;;4.07;1.40;;;10.20;99.90;;;;;;5059943;28;20549;-82
2022/09/19 02:46:18;;;;;;;6.10;1.93;;;10.10;99.90;;;;;;5058366;28;20254;-83
2022/09/19 02:48:53;;;;;;;7.43;1.90;;;10.10;99.90;;;;;;5059152;28;20598;-82
2022/09/19 02:51:27;;;;;;;3.73;1.63;;;10.10;99.90;;;;;;5044200;28;20206;-82
2022/09/19 02:53:58;;;;;;;6.97;2.00;;;10.10;99.90;;;;;;5059398;28;20641;-82
2022/09/19 02:56:33;;;;;;;4.80;1.80;;;10.10;99.90;;;;;;5059459;28;20807;-83
2022/09/19 02:59:02;;;;;;;9.53;1.97;;;10.00;99.90;;;;;;5059187;28;20646;-83
2022/09/19 03:01:34;;;;;;;5.53;2.00;;;10.10;99.90;;;;;;5063025;28;20210;-84
2022/09/19 03:04:12;;;;;;;5.60;1.97;;;9.90;99.90;;;;;;5062671;28;20638;-82
2022/09/19 03:06:43;;;;;;;4.60;1.90;;;9.90;99.90;;;;;;5062234;28;20754;-83
2022/09/19 03:09:14;;;;;;;4.23;1.90;;;9.90;99.90;;;;;;5059826;28;20271;-83
2022/09/19 03:11:46;;;;;;;5.40;2.20;;;9.90;99.90;;;;;;5062078;28;20214;-83
2022/09/19 03:14:13;;;;;;;5.97;2.80;;;9.80;99.90;;;;;;5062778;28;20209;-83
2022/09/19 03:16:44;;;;;;;7.57;2.73;;;9.90;99.90;;;;;;5063060;28;20532;-82
2022/09/19 03:19:11;;;;;;;8.80;2.77;;;9.80;99.90;;;;;;5059893;28;20265;-83
2022/09/19 03:21:38;;;;;;;9.50;3.00;;;9.80;99.90;;;;;;5058813;28;20214;-83
2022/09/19 03:24:06;;;;;;;6.70;3.27;;;9.70;99.90;;;;;;5060270;28;20207;-82
2022/09/19 03:26:35;;;;;;;10.03;3.37;;;9.80;99.90;;;;;;5061995;28;20241;-80
2022/09/19 03:29:03;;;;;;;8.73;3.20;;;9.90;99.90;;;;;;5060816;28;20201;-82
2022/09/19 03:31:31;;;;;;;10.83;4.50;;;9.80;99.90;;;;;;5059778;28;20207;-82
2022/09/19 03:33:59;;;;;;;8.87;3.67;;;9.70;99.90;;;;;;5055898;28;20534;-82
2022/09/19 03:36:28;;;;;;;7.60;3.03;;;9.70;99.90;;;;;;5056348;28;20219;-82
2022/09/19 03:39:02;;;;;;;6.40;3.47;;;9.80;99.90;;;;;;5056224;28;20226;-82
2022/09/19 03:41:31;;;;;;;8.53;3.33;;;9.80;99.90;;;;;;5056659;28;20203;-82
2022/09/19 03:43:59;;;;;;;9.13;3.50;;;9.70;99.90;;;;;;5057065;28;20203;-82
2022/09/19 03:46:27;;;;;;;8.00;2.93;;;9.70;99.90;;;;;;5059215;28;20223;-82
2022/09/19 03:48:54;;;;;;;9.97;3.47;;;9.70;99.90;;;;;;5059585;28;20567;-81
2022/09/19 03:51:23;;;;;;;8.90;3.30;;;9.70;99.90;;;;;;5057838;28;20214;-83
2022/09/19 03:53:50;;;;;;;9.83;3.30;;;9.70;99.90;;;;;;5058269;28;20558;-82
2022/09/19 03:56:17;;;;;;;6.70;3.20;;;9.70;99.90;;;;;;5057568;28;20326;-82
2022/09/19 03:58:45;;;;;;;14.57;3.43;;;9.70;99.90;;;;;;5056881;28;20223;-82
2022/09/19 04:01:12;;;;;;;7.90;2.90;;;9.70;99.90;;;;;;5057444;28;20206;-82
2022/09/19 04:03:40;;;;;;;6.50;3.20;;;9.70;99.90;;;;;;5057068;28;20203;-82
2022/09/19 04:06:09;;;;;;;10.87;3.47;;;9.60;99.90;;;;;;5057781;28;20233;-82
2022/09/19 04:08:37;;;;;;;8.80;2.93;;;9.70;99.90;;;;;;5057068;28;20199;-82
2022/09/19 04:11:04;;;;;;;6.17;2.70;;;9.70;99.90;;;;;;5056326;28;20286;-82
2022/09/19 04:13:33;;;;;;;6.63;2.60;;;9.70;99.90;;;;;;5056633;28;20233;-82
2022/09/19 04:16:00;;;;;;;6.57;2.47;;;9.60;99.90;;;;;;5056431;28;20317;-82
2022/09/19 04:18:27;;;;;;;5.27;2.17;;;9.60;99.90;;;;;;5054489;28;20745;-82
2022/09/19 04:20:55;;;;;;;5.27;1.83;;;9.70;99.90;;;;;;5055179;28;20203;-82
2022/09/19 04:23:25;;;;;;;6.43;2.30;;;9.60;99.90;;;;;;5055173;28;20203;-83
2022/09/19 04:25:54;;;;;;;7.90;2.00;;;9.70;99.90;;;;;;5055494;28;20301;-82
2022/09/19 04:28:22;;;;;;;10.23;3.13;;;9.60;99.90;;;;;;5055538;28;20233;-82
2022/09/19 04:30:50;;;;;;;5.50;2.47;;;9.60;99.90;;;;;;5054779;28;20214;-81
2022/09/19 04:33:18;;;;;;;3.10;1.73;;;9.70;99.90;;;;;;5056134;28;20210;-81
2022/09/19 04:35:45;;;;;;;13.03;5.83;;;9.60;99.90;;;;;;5054466;28;20580;-81
2022/09/19 04:38:16;;;;;;;4.73;1.40;;;9.70;99.90;;;;;;5052899;28;20311;-81
2022/09/19 04:40:45;;;;;;;5.57;2.07;;;9.70;99.90;;;;;;5052815;28;20206;-81
2022/09/19 04:43:16;;;;;;;2.97;1.50;;;9.70;99.90;;;;;;5055517;28;20740;-82
2022/09/19 04:45:46;;;;;;;5.20;1.43;;;9.70;99.90;;;;;;5044960;28;20227;-81
2022/09/19 04:48:13;;;;;;;6.33;1.50;;;9.70;99.90;;;;;;5038863;28;20195;-81
2022/09/19 04:50:40;;;;;;;4.90;1.57;;;9.70;99.90;;;;;;5064653;28;20199;-81
2022/09/19 04:53:06;;;;;;;6.60;2.47;;;9.60;99.90;;;;;;5064750;28;20306;-82
2022/09/19 04:55:33;;;;;;;4.67;1.50;;;9.80;99.90;;;;;;5050333;28;20597;-81
2022/09/19 04:58:01;;;;;;;7.63;1.93;;;9.70;99.90;;;;;;5068018;28;20223;-81
2022/09/19 05:00:39;;;;;;;5.77;2.53;;;9.80;99.90;;;;;;5058543;28;20211;-82
2022/09/19 05:03:08;;;;;;;6.73;2.40;;;9.80;99.90;;;;;;5047784;28;20748;-81
2022/09/19 05:05:36;;;;;;;7.50;2.20;;;9.90;99.90;;;;;;5036340;28;20288;-82
2022/09/19 05:08:05;;;;;;;5.83;1.60;;;9.80;99.90;;;;;;5054286;28;20203;-81
2022/09/19 05:10:33;;;;;;;2.23;1.30;;;9.80;99.90;;;;;;5054284;28;20203;-82
2022/09/19 05:13:00;;;;;;;5.20;1.73;;;9.90;99.90;;;;;;5053330;28;20222;-81
2022/09/19 05:15:27;;;;;;;7.10;2.57;;;10.00;99.90;;;;;;5053279;28;20706;-82
2022/09/19 05:17:55;;;;;;;4.53;1.67;;;10.00;99.90;;;;;;5053202;28;20229;-81
2022/09/19 05:20:25;;;;;;;4.97;1.67;;;10.00;99.90;;;;;;5052432;28;20206;-81
2022/09/19 05:22:56;;;;;;;5.10;1.93;;;9.90;99.90;;;;;;5053426;28;20211;-81
2022/09/19 05:25:23;;;;;;;5.30;1.50;;;10.00;99.90;;;;;;5053545;28;20230;-82
2022/09/19 05:27:50;;;;;;;8.37;1.90;;;10.00;99.90;;;;;;5045542;28;20209;-82
2022/09/19 05:30:17;;;;;;;6.83;1.60;;;10.00;99.90;;;;;;5049378;28;20282;-82
2022/09/19 05:32:44;;;;;;;6.93;1.90;;;10.10;99.90;;;;;;5052633;28;20213;-81
2022/09/19 05:35:13;;;;;;;5.77;1.60;;;10.10;99.90;;;;;;5054287;28;20249;-81
2022/09/19 05:37:41;;;;;;;4.37;1.80;;;10.10;99.90;;;;;;5053673;28;20289;-81
2022/09/19 05:40:10;;;;;;;6.07;1.87;;;10.10;99.90;;;;;;5052078;28;20305;-82
2022/09/19 05:42:40;;;;;;;4.43;1.87;;;10.10;99.90;;;;;;5054107;28;20622;-81
2022/09/19 05:45:08;;;;;;;6.73;2.13;;;10.10;99.90;;;;;;5052503;28;20264;-81
2022/09/19 05:47:35;;;;;;;5.40;2.10;;;10.10;99.90;;;;;;5055994;28;20213;-81
2022/09/19 05:50:02;;;;;;;3.33;1.80;;;10.10;99.90;;;;;;5057026;28;20548;-81
2022/09/19 05:55:14;;;;;;;3.03;1.70;;;10.10;99.90;;;;;;5016454;28;20218;-81
2022/09/19 05:57:41;;;;;;;5.90;2.03;;;10.00;99.90;;;;;;5049379;28;20211;-81
2022/09/19 06:00:08;;;;;;;4.47;1.77;;;10.00;99.90;;;;;;5052056;28;20257;-81
2022/09/19 06:02:35;;;;;;;3.47;1.97;;;10.00;99.90;;;;;;5055516;28;20253;-81
2022/09/19 06:05:02;;;;;;;3.50;1.50;;;10.00;99.90;;;;;;5053372;28;20218;-82
2022/09/19 06:07:30;;;;;;;3.73;1.60;;;9.90;99.90;;;;;;5047890;28;20677;-81
2022/09/19 06:09:57;;;;;;;4.83;2.27;;;9.90;99.90;;;;;;5040427;28;20203;-81
2022/09/19 06:12:24;;;;;;;4.70;1.97;;;10.10;99.90;;;;;;5045558;28;20685;-81
2022/09/19 06:14:51;;;;;;;2.83;1.73;;;10.00;99.90;;;;;;5056045;28;20237;-81
2022/09/19 06:17:17;;;;;;;1.87;1.50;;;10.20;99.90;;;;;;5057624;28;20202;-81
2022/09/19 06:19:45;;;;;;;2.97;1.90;;;10.10;99.90;;;;;;5055811;28;20227;-82
2022/09/19 06:22:12;;;;;;;3.60;2.13;;;10.30;99.90;;;;;;5057159;28;20256;-82
2022/09/19 06:24:40;;;;;;;4.97;1.80;;;10.30;99.90;;;;;;5057402;28;20226;-81
2022/09/19 06:27:07;;;;;;;3.93;1.87;;;10.40;99.90;;;;;;5057182;28;20744;-82
2022/09/19 06:29:34;;;;;;;3.37;2.10;;;10.50;99.90;;;;;;5054911;28;20195;-82
2022/09/19 06:32:03;;;;;;;4.47;1.80;;;10.70;99.90;;;;;;5055849;28;20600;-82
2022/09/19 06:34:30;;;;;;;4.83;1.60;;;10.80;99.90;;;;;;5055827;28;20218;-81
2022/09/19 06:36:57;;;;;;;6.00;1.80;;;10.80;99.90;;;;;;5055694;28;20206;-81
2022/09/19 06:39:24;;;;;;;4.63;1.50;;;11.00;99.90;;;;;;5055846;28;20223;-82
2022/09/19 06:41:52;;;;;;;4.90;1.83;;;11.10;99.90;;;;;;5056489;28;20207;-81
2022/09/19 06:44:19;;;;;;;4.97;1.90;;;11.20;99.90;;;;;;5056778;28;20214;-81
2022/09/19 06:46:45;;;;;;;8.20;2.30;;;11.40;99.90;;;;;;5057144;28;20225;-82
2022/09/19 06:49:12;;;;;;;5.97;2.30;;;11.50;99.90;;;;;;5046882;28;20195;-82
2022/09/19 06:51:39;;;;;;;9.17;2.13;;;11.50;99.90;;;;;;5057761;28;20207;-81
2022/09/19 06:54:06;;;;;;;7.10;2.37;;;11.70;99.90;;;;;;5043496;28;20450;-81
2022/09/19 06:56:32;;;;;;;6.10;2.03;;;11.70;99.90;;;;;;5047057;28;20231;-81
2022/09/19 06:59:01;;;;;;;3.30;1.83;;;11.60;99.90;;;;;;5056130;28;20590;-81
2022/09/19 07:01:27;;;;;;;4.37;1.50;;;11.60;99.90;;;;;;5056434;28;20214;-82
2022/09/19 07:03:55;;;;;;;3.63;1.40;;;11.60;99.90;;;;;;5057289;28;20222;-81
2022/09/19 07:06:21;;;;;;;3.83;1.80;;;11.70;99.90;;;;;;5057154;28;20261;-81
2022/09/19 07:08:48;;;;;;;6.17;2.43;;;11.90;99.90;;;;;;5056344;28;20202;-82
2022/09/19 07:11:15;;;;;;;9.13;2.03;;;12.00;99.90;;;;;;5056838;28;20229;-82
2022/09/19 07:13:43;;;;;;;9.63;2.13;;;12.00;99.90;;;;;;5055077;28;20217;-82
2022/09/19 07:16:11;;;;;;;3.90;1.80;;;12.00;99.90;;;;;;5057080;28;20237;-82
2022/09/19 07:18:38;;;;;;;5.23;1.80;;;12.00;99.90;;;;;;5056880;28;20223;-82
2022/09/19 07:21:05;;;;;;;6.23;1.93;;;12.10;99.90;;;;;;5055762;28;20215;-82
2022/09/19 07:23:31;;;;;;;5.90;1.60;;;12.20;99.90;;;;;;5056262;28;20202;-81
2022/09/19 07:25:59;;;;;;;11.57;2.57;;;12.30;99.90;;;;;;5039450;28;20713;-81
2022/09/19 07:28:26;;;;;;;5.67;2.07;;;12.50;99.90;;;;;;5051896;28;20221;-81
2022/09/19 07:30:54;;;;;;;7.00;2.10;;;12.70;99.90;;;;;;5056482;28;20207;-82
2022/09/19 07:33:23;;;;;;;5.87;1.73;;;12.80;99.90;;;;;;5039701;28;20208;-82
2022/09/19 07:35:51;;;;;;;5.13;1.83;;;12.90;99.90;;;;;;5051768;28;20257;-82
2022/09/19 07:38:20;;;;;;;8.53;2.30;;;13.30;99.90;;;;;;5055358;28;20252;-82
2022/09/19 07:40:47;;;;;;;11.17;2.10;;;13.70;99.90;;;;;;5055252;28;20217;-82
2022/09/19 07:43:16;;;;;;;3.53;1.77;;;13.60;99.90;;;;;;5055594;28;20195;-82
2022/09/19 07:45:45;;;;;;;12.30;2.27;;;13.50;99.90;;;;;;5056047;28;20230;-82
2022/09/19 07:48:12;;;;;;;5.87;1.97;;;13.40;99.90;;;;;;5056399;28;20256;-81
2022/09/19 07:50:40;;;;;;;5.83;1.90;;;13.70;99.90;;;;;;5056057;28;20213;-82
2022/09/19 07:53:10;;;;;;;6.37;2.50;;;13.70;99.90;;;;;;5057916;28;20227;-83
2022/09/19 07:55:37;;;;;;;5.87;2.13;;;13.40;99.90;;;;;;5055989;28;20248;-82
2022/09/19 07:58:05;;;;;;;7.43;2.13;;;13.60;99.90;;;;;;5056874;28;20211;-81
2022/09/19 08:00:34;;;;;;;7.87;2.10;;;13.60;99.90;;;;;;5054849;28;20203;-82
2022/09/19 08:03:02;;;;;;;14.80;3.27;;;13.60;99.90;;;;;;5056520;28;20203;-82
2022/09/19 08:05:34;;;;;;;8.43;2.40;;;13.40;99.90;;;;;;5055597;28;20218;-82
2022/09/19 08:08:02;;;;;;;13.60;2.63;;;13.50;99.90;;;;;;5055563;28;20214;-82
2022/09/19 08:10:30;;;;;;;11.93;3.00;;;13.50;99.90;;;;;;5047836;28;20199;-81
2022/09/19 08:12:59;;;;;;;8.73;2.60;;;13.60;99.90;;;;;;5055759;28;20624;-82
2022/09/19 08:15:26;;;;;;;5.17;2.00;;;13.60;99.90;;;;;;5056341;28;20241;-81
2022/09/19 08:17:58;;;;;;;8.07;2.10;;;13.70;99.90;;;;;;5054920;28;20226;-82
2022/09/19 08:20:25;;;;;;;9.70;2.57;;;13.80;99.90;;;;;;5055778;28;20230;-82
2022/09/19 08:22:56;;;;;;;11.83;2.57;;;13.80;99.90;;;;;;5055253;28;20214;-82
2022/09/19 08:25:25;;;;;;;9.80;2.73;;;13.80;99.90;;;;;;5055374;28;20590;-82
2022/09/19 08:27:52;;;;;;;8.77;2.27;;;13.80;99.90;;;;;;5055309;28;20219;-82
2022/09/19 08:30:18;;;;;;;10.57;2.47;;;13.80;99.90;;;;;;5054825;28;20206;-81
2022/09/19 08:32:46;;;;;;;10.73;2.43;;;13.80;99.90;;;;;;5053923;28;20298;-81
2022/09/19 08:35:15;;;;;;;8.63;2.20;;;13.80;99.90;;;;;;5055070;28;20326;-82
2022/09/19 08:37:41;;;;;;;11.23;2.20;;;13.70;99.90;;;;;;5054333;28;20582;-81
2022/09/19 08:40:21;;;;;;;7.70;1.90;;;13.90;99.90;;;;;;5053725;28;20215;-82
2022/09/19 08:43:03;;;;;;;9.83;2.60;;;14.10;99.90;;;;;;5036290;28;20246;-82
2022/09/19 08:45:43;;;;;;;6.47;2.33;;;14.10;99.90;;;;;;5050124;28;20233;-82
2022/09/19 08:48:15;;;;;;;10.23;2.40;;;14.40;99.90;;;;;;5056128;28;20206;-82
2022/09/19 08:50:52;;;;;;;12.13;2.60;;;14.60;99.90;;;;;;5055519;28;20329;-82
2022/09/19 08:53:28;;;;;;;11.23;2.30;;;14.40;99.90;;;;;;5055831;28;20224;-82
2022/09/19 08:55:59;;;;;;;10.37;2.10;;;14.50;99.90;;;;;;5054875;28;20230;-81
2022/09/19 08:58:29;;;;;;;10.00;2.13;;;14.50;99.90;;;;;;5054550;28;20852;-82
2022/09/19 09:00:56;;;;;;;8.63;2.20;;;14.50;99.90;;;;;;5041388;28;20203;-82
2022/09/19 09:03:34;;;;;;;13.27;2.63;;;14.60;99.90;;;;;;5033166;28;20204;-81
2022/09/19 09:06:12;;;;;;;9.60;2.37;;;14.90;99.90;;;;;;5043585;28;20214;-82
2022/09/19 09:08:46;;;;;;;8.67;2.20;;;14.80;99.90;;;;;;5045868;28;20561;-82
2022/09/19 09:11:22;;;;;;;10.40;2.03;;;15.10;99.90;;;;;;5054276;28;20203;-82
2022/09/19 09:14:00;;;;;;;6.50;2.05;;;15.30;99.90;;;;;;5054399;28;20624;-81
2022/09/19 09:16:39;;;;;;;7.75;2.10;;;15.00;99.90;;;;;;5054909;28;20238;-83
2022/09/19 09:19:21;;;;;;;10.93;2.90;;;15.10;99.90;;;;;;5055896;28;20223;-82
2022/09/19 09:21:59;;;;;;;11.17;2.33;;;15.30;99.90;;;;;;5054522;28;20593;-82
2022/09/19 09:24:29;;;;;;;8.50;2.20;;;15.50;99.90;;;;;;5056035;28;20616;-82
2022/09/19 09:26:59;;;;;;;13.73;1.88;;;15.60;99.90;;;;;;5055385;28;20293;-82
2022/09/19 09:29:31;;;;;;;9.48;2.50;;;15.80;99.90;;;;;;5055018;28;20206;-82
2022/09/19 09:32:02;;;;;;;9.48;2.47;;;15.80;99.90;;;;;;5056159;28;20722;-82
2022/09/19 09:34:35;;;;;;;8.80;1.83;;;15.50;99.90;;;;;;5055280;28;20209;-83
2022/09/19 09:37:07;;;;;;;9.65;2.40;;;15.60;99.90;;;;;;5056036;28;20651;-82
2022/09/19 09:39:57;;;;;;;10.75;2.13;;;15.60;99.90;;;;;;5056582;28;20675;-83
2022/09/19 09:42:26;;;;;;;12.23;2.28;;;15.40;99.90;;;;;;5055762;28;20576;-82
2022/09/19 09:45:01;;;;;;;11.70;2.05;;;15.70;99.90;;;;;;5055017;28;20225;-82
2022/09/19 09:47:43;;;;;;;10.75;2.78;;;15.70;55.50;;;;;;5056206;28;20203;-82
2022/09/19 09:50:32;;;;;;;10.35;2.58;;;15.70;1.00;;;;;;5055902;28;20606;-82
2022/09/19 09:53:04;;;;;;;13.10;2.35;;;15.60;1.00;;;;;;5054607;28;20199;-82
2022/09/19 09:58:39;;;;;;;5.80;2.15;;;16.10;1.00;;;;;;5054869;28;20192;-81
2022/09/19 10:04:29;;;;;;;11.85;2.50;;;17.00;1.00;;;;;;5057062;28;20194;-81
2022/09/19 10:07:09;;;;;;;10.02;2.80;;;17.60;1.00;;;;;;5055708;28;20183;-81
2022/09/19 10:09:40;;;;;;;9.80;2.85;;;17.60;99.90;;;;;;5056213;28;20199;-81
2022/09/19 10:12:17;;;;;;;8.50;2.10;;;17.50;1.00;;;;;;5055648;28;20227;-82
2022/09/19 10:14:46;;;;;;;5.40;1.83;;;17.40;99.90;;;;;;5057009;28;20277;-81
2022/09/19 10:17:19;;;;;;;6.97;2.50;;;17.50;84.90;;;;;;5055081;28;20277;-83
2022/09/19 10:19:48;;;;;;;6.13;1.90;;;17.90;99.90;;;;;;5055746;28;20313;-81
2022/09/19 10:22:16;;;;;;;8.75;2.22;;;17.90;99.90;;;;;;5055221;28;20199;-83
2022/09/19 10:24:50;;;;;;;8.48;1.83;;;17.60;1.00;;;;;;5055688;28;20231;-82
2022/09/19 10:27:22;;;;;;;8.98;2.35;;;17.20;1.00;;;;;;5055987;28;20570;-82
2022/09/19 10:29:51;;;;;;;5.28;1.80;;;17.10;99.90;;;;;;5056506;28;20203;-81
2022/09/19 10:32:24;;;;;;;7.85;1.23;;;16.90;99.90;;;;;;5055641;28;20215;-81
2022/09/19 10:34:52;;;;;;;7.07;1.67;;;17.20;68.90;;;;;;5061573;28;20211;-82
2022/09/19 10:37:20;;;;;;;6.38;1.45;;;17.30;1.00;;;;;;5060363;28;20221;-82
2022/09/19 10:39:48;;;;;;;7.28;1.70;;;16.60;1.00;;;;;;5058016;28;20233;-81
2022/09/19 10:42:37;;;;;;;5.68;2.00;;;16.60;1.00;;;;;;5059553;28;20194;-80
2022/09/19 10:45:18;;;;;;;4.10;1.30;;;16.20;57.80;;;;;;5053604;28;20219;-80
2022/09/19 10:47:48;;;;;;;7.00;1.90;;;16.30;1.00;;;;;;5055200;28;20652;-82
2022/09/19 10:50:17;;;;;;;4.80;1.00;;;16.90;1.00;;;;;;5052909;28;20643;-81
2022/09/19 10:52:46;;;;;;;3.95;1.35;;;17.30;99.90;;;;;;5057765;28;20210;-82
2022/09/19 10:55:20;;;;;;;4.47;1.73;;;16.70;1.00;;;;;;5062120;28;20223;-81
2022/09/19 10:57:54;;;;;;;7.45;1.27;;;16.50;1.00;;;;;;5057158;28;20569;-81
2022/09/19 11:00:26;;;;;;;4.78;1.15;;;16.70;1.00;;;;;;5058293;28;20226;-81
2022/09/19 11:03:00;;;;;;;4.22;1.02;;;16.70;1.00;;;;;;5039104;28;20202;-81
2022/09/19 11:05:29;;;;;;;3.92;1.38;;;16.50;99.90;;;;;;5050644;28;20233;-81
2022/09/19 11:07:59;;;;;;;7.47;1.45;;;16.30;1.00;;;;;;5056898;28;20203;-80
2022/09/19 11:10:38;;;;;;;6.53;1.30;;;16.30;99.90;;;;;;5053123;28;20640;-81
2022/09/19 11:13:13;;;;;;;2.47;0.85;;;16.50;1.00;;;;;;5055360;28;20585;-80
2022/09/19 11:15:59;;;;;;;5.13;0.85;;;17.10;99.90;;;;;;5049356;28;20226;-80
2022/09/19 11:18:37;;;;;;;3.70;1.20;;;17.00;99.90;;;;;;5061574;28;20742;-80
2022/09/19 11:21:10;;;;;;;6.22;1.70;;;17.50;1.00;;;;;;5055201;28;20317;-81
2022/09/19 11:24:04;;;;;;;3.95;1.20;;;17.60;1.00;;;;;;5059356;28;20195;-80
2022/09/19 11:26:44;;;;;;;6.22;1.35;;;17.30;1.00;;;;;;5058948;28;20229;-82
2022/09/19 11:29:27;;;;;;;4.45;1.17;;;17.60;1.00;;;;;;5051523;28;20199;-81
2022/09/19 11:32:06;;;;;;;6.28;1.58;;;17.70;99.90;;;;;;5051161;28;20573;-81
2022/09/19 11:34:40;;;;;;;5.60;1.13;;;17.90;1.00;;;;;;5045233;28;20211;-81
2022/09/19 11:37:25;;;;;;;3.22;0.80;;;18.50;99.90;;;;;;5049968;28;20690;-82
2022/09/19 11:40:06;;;;;;;3.70;1.35;;;18.50;1.00;;;;;;5050542;28;20238;-81
2022/09/19 11:42:41;;;;;;;4.82;1.08;;;18.90;1.00;;;;;;5052460;28;20207;-82
2022/09/19 11:45:12;;;;;;;4.45;1.05;;;18.60;1.00;;;;;;5054641;28;20589;-82
2022/09/19 11:48:01;;;;;;;4.65;2.03;;;18.30;99.90;;;;;;5058931;28;20215;-82
2022/09/19 11:50:39;;;;;;;5.57;1.98;;;18.30;1.00;;;;;;5050017;28;20219;-82
2022/09/19 11:53:23;;;;;;;8.73;1.80;;;18.00;32.10;;;;;;5052509;28;20726;-82
2022/09/19 11:55:56;;;;;;;6.70;1.42;;;17.90;99.90;;;;;;5051381;28;20317;-82
2022/09/19 11:58:31;;;;;;;4.22;1.50;;;17.50;99.90;;;;;;5051095;28;20202;-82
2022/09/19 12:01:08;;;;;;;3.28;1.40;;;16.80;1.00;;;;;;5049080;28;20230;-82
2022/09/19 12:03:52;;;;;;;4.68;0.93;;;17.40;1.00;;;;;;5056461;28;20203;-81
2022/09/19 12:06:31;;;;;;;3.15;1.40;;;18.00;99.90;;;;;;5057262;28;20237;-82
2022/09/19 12:09:12;;;;;;;3.35;1.17;;;18.50;1.00;;;;;;5054189;28;20209;-83
2022/09/19 12:11:43;;;;;;;8.75;0.90;;;18.60;1.00;;;;;;5049915;28;20213;-83
2022/09/19 12:14:17;;;;;;;3.47;0.52;;;18.60;1.00;;;;;;5054096;28;20203;-83
2022/09/19 12:16:50;;;;;;;0.88;0.20;;;18.70;1.00;;;;;;5060548;28;20229;-83
2022/09/19 12:19:21;;;;;;;3.40;0.43;;;19.00;1.00;;;;;;5054262;28;20572;-83
2022/09/19 12:21:52;;;;;;;2.63;0.73;;;19.00;99.90;;;;;;5052631;28;20317;-84
2022/09/19 12:27:13;;;;;;;1.83;0.30;;;17.60;1.00;;;;;;5051632;28;20249;-83
2022/09/19 12:29:47;;;;;;;0.68;0.40;;;17.30;1.00;;;;;;5040869;28;20207;-83
2022/09/19 12:32:22;;;;;;;1.30;0.70;;;16.80;99.90;;;;;;5062040;28;20210;-83
2022/09/19 12:34:55;;;;;;;2.85;0.70;;;16.90;99.90;;;;;;5054077;28;20227;-84
2022/09/19 12:37:31;;;;;;;2.45;0.70;;;16.70;1.00;;;;;;5052155;28;20201;-84
2022/09/19 12:40:05;;;;;;;1.95;0.45;;;16.70;1.00;;;;;;5054409;28;20210;-83
2022/09/19 12:42:45;;;;;;;5.10;1.00;;;16.60;1.00;;;;;;5057425;28;20211;-84
2022/09/19 12:45:19;;;;;;;5.13;1.40;;;16.60;99.90;;;;;;5063414;28;20272;-83
2022/09/19 12:48:00;;;;;;;4.22;1.10;;;16.50;1.00;;;;;;5061509;28;20416;-84
2022/09/19 12:50:31;;;;;;;7.93;1.38;;;16.40;1.00;;;;;;5057610;28;20230;-84
2022/09/19 12:53:11;;;;;;;5.30;1.20;;;16.40;1.00;;;;;;5059285;28;20199;-84
2022/09/19 12:55:46;;;;;;;5.82;1.65;;;16.40;1.00;;;;;;5054323;28;20226;-84
2022/09/19 12:58:16;;;;;;;6.32;1.75;;;16.20;1.00;;;;;;5052479;28;20202;-84
2022/09/19 13:00:45;;;;;;;10.00;1.92;;;16.30;1.00;;;;;;5053763;28;20677;-83
2022/09/19 13:03:21;;;;;;;7.35;2.20;;;16.30;1.00;;;;;;5053729;28;20627;-81
2022/09/19 13:05:52;;;;;;;6.90;1.55;;;14.60;1.00;;;;;;5067196;28;20230;-82
2022/09/19 13:08:25;;;;;;;4.38;1.35;;;13.80;99.90;;;;;;5059295;28;20241;-81
2022/09/19 13:10:59;;;;;;;8.02;1.45;;;13.70;99.90;;;;;;5060751;28;20238;-81
2022/09/19 13:13:31;;;;;;;6.13;1.35;;;13.70;99.90;;;;;;5056610;28;20199;-81
2022/09/19 13:16:00;;;;;;;3.55;1.30;;;13.50;99.90;;;;;;5064964;28;20233;-81
2022/09/19 13:24:04;;;;;;;5.07;1.73;;;13.40;99.90;;;;;;5076745;28;20194;-81
2022/09/19 13:26:34;;;;;;;5.90;1.23;;;13.60;99.90;;;;;;5069745;28;20619;-81
2022/09/19 13:29:02;;;;;;;3.80;1.13;;;13.50;99.90;;;;;;5060914;28;20290;-80
2022/09/19 13:31:38;;;;;;;3.60;0.80;;;13.70;99.90;;;;;;5062637;28;20203;-81